Time;durP1;ratioP1;P1;durP2;ratioP2;P2;SDS_P1;SDS_P2;PMS_P1;PMS_P2;Temp;Humidity;BMP_temperature;BMP_pressure;BME280_temperature;BME280_humidity;BME280_pressure;Samples;Min_cycle;Max_cycle;Signal;HPM_P1;HPM_P2
2023/03/31 00:02:13;;;;;;;21.75;5.65;;;;;;;;;;5039065;28;20417;-79
2023/03/31 00:04:44;;;;;;;17.77;5.30;;;;;;;;;;5042226;28;20487;-80
2023/03/31 00:07:12;;;;;;;12.82;4.43;;;;;;;;;;5045013;28;20420;-80
2023/03/31 00:09:39;;;;;;;25.25;5.50;;;;;;;;;;5040127;28;20454;-80
2023/03/31 00:12:06;;;;;;;17.45;5.40;;;;;;;;;;5046846;28;20444;-80
2023/03/31 00:14:32;;;;;;;16.38;4.40;;;;;;;;;;5040647;28;20823;-80
2023/03/31 00:17:03;;;;;;;18.05;5.30;;;;;;;;;;5044953;28;20436;-82
2023/03/31 00:19:32;;;;;;;12.25;4.22;;;;;;;;;;5041818;28;20796;-80
2023/03/31 00:22:00;;;;;;;17.52;4.53;;;;;;;;;;5045303;28;20433;-80
2023/03/31 00:24:27;;;;;;;15.00;4.85;;;;;;;;;;5045692;28;20781;-80
2023/03/31 00:26:53;;;;;;;15.23;5.57;;;;;;;;;;5044456;28;20443;-79
2023/03/31 00:29:20;;;;;;;16.52;4.82;;;;;;;;;;5042890;28;20446;-80
2023/03/31 00:31:46;;;;;;;18.08;4.40;;;;;;;;;;5043610;28;20497;-79
2023/03/31 00:34:14;;;;;;;16.35;4.80;;;;;;;;;;5046144;28;20890;-81
2023/03/31 00:36:44;;;;;;;15.70;4.53;;;;;;;;;;5043871;28;20425;-82
2023/03/31 00:39:11;;;;;;;12.20;4.60;;;;;;;;;;5043419;28;20930;-81
2023/03/31 00:41:38;;;;;;;13.68;4.10;;;;;;;;;;5038713;28;20434;-82
2023/03/31 00:44:07;;;;;;;13.30;4.80;;;;;;;;;;5041959;28;20437;-81
2023/03/31 00:46:35;;;;;;;14.60;4.87;;;;;;;;;;5042721;28;20447;-81
2023/03/31 00:49:02;;;;;;;14.02;4.72;;;;;;;;;;5045249;28;20990;-81
2023/03/31 00:51:32;;;;;;;19.00;4.85;;;;;;;;;;5042826;28;20855;-81
2023/03/31 00:54:01;;;;;;;16.10;4.65;;;;;;;;;;5038725;28;20500;-80
2023/03/31 00:56:29;;;;;;;15.00;4.40;;;;;;;;;;5046098;28;20937;-81
2023/03/31 00:58:56;;;;;;;16.42;4.38;;;;;;;;;;5041435;28;20429;-81
2023/03/31 01:01:25;;;;;;;15.20;4.63;;;;;;;;;;5044820;28;20415;-81
2023/03/31 01:03:53;;;;;;;12.32;4.40;;;;;;;;;;5043021;28;20422;-81
2023/03/31 01:06:22;;;;;;;12.07;3.70;;;;;;;;;;5045804;28;20415;-81
2023/03/31 01:08:51;;;;;;;15.88;5.05;;;;;;;;;;5047976;28;20477;-81
2023/03/31 01:11:19;;;;;;;11.40;4.00;;;;;;;;;;5042359;28;20413;-81
2023/03/31 01:13:48;;;;;;;15.02;4.40;;;;;;;;;;5045450;28;20465;-81
2023/03/31 01:16:15;;;;;;;19.05;5.10;;;;;;;;;;5042155;28;20415;-81
2023/03/31 01:18:45;;;;;;;15.35;4.40;;;;;;;;;;5046897;28;20417;-81
2023/03/31 01:21:29;;;;;;;16.65;4.65;;;;;;;;;;5042735;28;20425;-81
2023/03/31 01:24:13;;;;;;;12.37;3.60;;;;;;;;;;5005604;28;20499;-81
2023/03/31 01:26:51;;;;;;;15.13;4.10;;;;;;;;;;5035736;28;20430;-81
2023/03/31 01:29:26;;;;;;;14.93;4.25;;;;;;;;;;5040007;28;20431;-81
2023/03/31 01:32:02;;;;;;;10.77;3.73;;;;;;;;;;5044655;28;20434;-81
2023/03/31 01:34:58;;;;;;;16.63;4.95;;;;;;;;;;5044923;28;20423;-81
2023/03/31 01:37:43;;;;;;;15.00;4.37;;;;;;;;;;4966976;28;20432;-81
2023/03/31 01:40:27;;;;;;;11.73;3.88;;;;;;;;;;5038089;28;20943;-81
2023/03/31 01:42:57;;;;;;;15.20;5.03;;;;;;;;;;5046042;28;20407;-81
2023/03/31 01:45:29;;;;;;;16.02;4.18;;;;;;;;;;5042266;28;20425;-81
2023/03/31 01:47:58;;;;;;;20.08;4.80;;;;;;;;;;5049486;28;20417;-81
2023/03/31 01:50:26;;;;;;;15.55;3.97;;;;;;;;;;5047086;28;20433;-81
2023/03/31 01:52:56;;;;;;;12.90;3.90;;;;;;;;;;5064719;28;20831;-81
2023/03/31 01:55:24;;;;;;;15.38;4.40;;;;;;;;;;5066317;28;20436;-81
2023/03/31 01:57:52;;;;;;;13.52;4.10;;;;;;;;;;5067573;28;20486;-81
2023/03/31 02:00:21;;;;;;;15.93;4.25;;;;;;;;;;5068378;28;20423;-81
2023/03/31 02:02:50;;;;;;;17.33;4.20;;;;;;;;;;5064888;28;20431;-81
2023/03/31 02:05:18;;;;;;;14.27;4.50;;;;;;;;;;5073249;28;20469;-81
2023/03/31 02:07:46;;;;;;;13.10;5.13;;;;;;;;;;5065029;28;20425;-81
2023/03/31 02:10:15;;;;;;;16.98;4.75;;;;;;;;;;5066608;28;20497;-81
2023/03/31 02:12:43;;;;;;;16.58;4.40;;;;;;;;;;5073021;28;20423;-81
2023/03/31 02:15:11;;;;;;;13.43;4.47;;;;;;;;;;5067344;28;20434;-81
2023/03/31 02:17:41;;;;;;;15.95;4.80;;;;;;;;;;5068662;28;20424;-81
2023/03/31 02:20:10;;;;;;;17.27;4.80;;;;;;;;;;5073029;28;20889;-82
2023/03/31 02:22:38;;;;;;;15.90;4.93;;;;;;;;;;5066234;28;20433;-81
2023/03/31 02:25:06;;;;;;;17.05;4.60;;;;;;;;;;5061812;28;20477;-81
2023/03/31 02:27:34;;;;;;;13.55;5.10;;;;;;;;;;5062786;28;20425;-81
2023/03/31 02:30:00;;;;;;;18.45;5.60;;;;;;;;;;5062495;28;20431;-81
2023/03/31 02:32:31;;;;;;;11.57;5.22;;;;;;;;;;5067301;28;20467;-81
2023/03/31 02:34:59;;;;;;;19.15;6.00;;;;;;;;;;5065832;28;20937;-81
2023/03/31 02:37:28;;;;;;;17.35;5.80;;;;;;;;;;5063280;28;20453;-81
2023/03/31 02:39:56;;;;;;;15.02;5.60;;;;;;;;;;5062855;28;20429;-81
2023/03/31 02:42:22;;;;;;;17.15;6.35;;;;;;;;;;5062356;28;20939;-81
2023/03/31 02:44:49;;;;;;;15.95;6.32;;;;;;;;;;5067760;28;20493;-81
2023/03/31 02:47:17;;;;;;;16.37;5.37;;;;;;;;;;5061298;28;20427;-81
2023/03/31 02:49:45;;;;;;;13.63;5.63;;;;;;;;;;5063003;28;20440;-81
2023/03/31 02:52:21;;;;;;;16.52;5.20;;;;;;;;;;5061650;28;20938;-81
2023/03/31 02:55:02;;;;;;;16.63;5.63;;;;;;;;;;5065656;28;20429;-81
2023/03/31 02:57:50;;;;;;;12.45;5.20;;;;;;;;;;5061245;28;20423;-81
2023/03/31 03:00:21;;;;;;;14.70;5.97;;;;;;;;;;5065443;28;20425;-81
2023/03/31 03:02:53;;;;;;;16.00;5.88;;;;;;;;;;5063613;28;20481;-81
2023/03/31 03:05:25;;;;;;;13.33;6.10;;;;;;;;;;5062711;28;20432;-81
2023/03/31 03:07:56;;;;;;;18.15;6.22;;;;;;;;;;5062627;28;20422;-81
2023/03/31 03:10:27;;;;;;;15.93;5.60;;;;;;;;;;5064243;28;20431;-81
2023/03/31 03:12:57;;;;;;;14.52;5.80;;;;;;;;;;5065912;28;20434;-81
2023/03/31 03:15:26;;;;;;;10.80;5.28;;;;;;;;;;5060974;28;20424;-81
2023/03/31 03:17:53;;;;;;;15.73;5.65;;;;;;;;;;5062791;28;20435;-81
2023/03/31 03:20:20;;;;;;;10.50;5.40;;;;;;;;;;5065493;28;20917;-81
2023/03/31 03:22:47;;;;;;;16.27;5.30;;;;;;;;;;5063157;28;20427;-81
2023/03/31 03:25:16;;;;;;;13.90;5.30;;;;;;;;;;5065260;28;20918;-81
2023/03/31 03:27:42;;;;;;;13.55;6.00;;;;;;;;;;5066013;28;20425;-81
2023/03/31 03:30:10;;;;;;;15.40;5.65;;;;;;;;;;5064575;28;20433;-81
2023/03/31 03:32:37;;;;;;;12.82;5.72;;;;;;;;;;5059122;28;20435;-81
2023/03/31 03:35:05;;;;;;;12.75;5.72;;;;;;;;;;5067619;28;20921;-81
2023/03/31 03:37:31;;;;;;;13.30;6.40;;;;;;;;;;5065063;28;20951;-81
2023/03/31 03:39:58;;;;;;;13.77;6.07;;;;;;;;;;5064518;28;20508;-81
2023/03/31 03:42:26;;;;;;;15.30;6.20;;;;;;;;;;5061893;28;20427;-81
2023/03/31 03:44:52;;;;;;;15.00;5.93;;;;;;;;;;5065240;28;20910;-81
2023/03/31 03:47:18;;;;;;;14.40;5.50;;;;;;;;;;5064037;28;20429;-81
2023/03/31 03:49:47;;;;;;;13.80;5.40;;;;;;;;;;5064454;28;20430;-81
2023/03/31 03:52:15;;;;;;;12.65;4.80;;;;;;;;;;5063631;28;20421;-81
2023/03/31 03:54:41;;;;;;;13.23;5.47;;;;;;;;;;5062100;28;20432;-81
2023/03/31 03:57:08;;;;;;;13.57;5.65;;;;;;;;;;5065102;28;20423;-81
2023/03/31 03:59:36;;;;;;;17.70;6.20;;;;;;;;;;5063620;28;20424;-81
2023/03/31 04:02:02;;;;;;;12.00;5.30;;;;;;;;;;5064709;28;20427;-81
2023/03/31 04:04:29;;;;;;;17.43;5.40;;;;;;;;;;5060958;28;20434;-81
2023/03/31 04:06:55;;;;;;;15.38;5.80;;;;;;;;;;5061354;28;20432;-81
2023/03/31 04:09:21;;;;;;;12.20;5.30;;;;;;;;;;5063559;28;20534;-80
2023/03/31 04:11:48;;;;;;;11.95;5.15;;;;;;;;;;5062389;28;20430;-81
2023/03/31 04:14:14;;;;;;;13.05;4.53;;;;;;;;;;5063882;28;20425;-81
2023/03/31 04:16:45;;;;;;;11.25;4.50;;;;;;;;;;5062778;28;20424;-81
2023/03/31 04:19:13;;;;;;;12.68;4.38;;;;;;;;;;5064026;28;20953;-81
2023/03/31 04:21:44;;;;;;;16.38;4.60;;;;;;;;;;5064967;28;20418;-81
2023/03/31 04:24:14;;;;;;;11.95;4.57;;;;;;;;;;5061522;28;20910;-80
2023/03/31 04:26:42;;;;;;;16.20;4.63;;;;;;;;;;5061279;28;20862;-81
2023/03/31 04:29:11;;;;;;;14.68;4.65;;;;;;;;;;5063829;28;20860;-81
2023/03/31 04:31:41;;;;;;;13.80;4.40;;;;;;;;;;5062486;28;20424;-81
2023/03/31 04:34:12;;;;;;;11.98;4.47;;;;;;;;;;5064143;28;20423;-81
2023/03/31 04:36:41;;;;;;;12.68;4.80;;;;;;;;;;5062701;28;20426;-81
2023/03/31 04:39:09;;;;;;;13.88;4.00;;;;;;;;;;5059388;28;20836;-81
2023/03/31 04:41:36;;;;;;;10.80;4.60;;;;;;;;;;5062212;28;20421;-81
2023/03/31 04:44:02;;;;;;;13.45;4.53;;;;;;;;;;5063939;28;20939;-82
2023/03/31 04:46:29;;;;;;;9.93;4.30;;;;;;;;;;5063901;28;20424;-82
2023/03/31 04:48:55;;;;;;;13.43;4.20;;;;;;;;;;5062783;28;20447;-82
2023/03/31 04:51:23;;;;;;;12.20;4.30;;;;;;;;;;5063476;28;20420;-83
2023/03/31 04:53:50;;;;;;;8.10;3.70;;;;;;;;;;5062088;28;20449;-82
2023/03/31 04:56:16;;;;;;;12.30;4.40;;;;;;;;;;5066231;28;20405;-83
2023/03/31 04:58:43;;;;;;;14.07;4.78;;;;;;;;;;5065925;28;20427;-83
2023/03/31 05:01:12;;;;;;;11.88;4.10;;;;;;;;;;5059834;28;20415;-83
2023/03/31 05:03:38;;;;;;;10.15;4.25;;;;;;;;;;5065468;28;20427;-84
2023/03/31 05:06:05;;;;;;;11.18;3.47;;;;;;;;;;5059346;28;20425;-83
2023/03/31 05:08:33;;;;;;;15.82;4.47;;;;;;;;;;5063510;28;20436;-81
2023/03/31 05:10:59;;;;;;;11.77;4.95;;;;;;;;;;5063708;28;20419;-81
2023/03/31 05:13:26;;;;;;;10.27;4.40;;;;;;;;;;5066408;28;20424;-82
2023/03/31 05:15:52;;;;;;;12.98;4.90;;;;;;;;;;5064220;28;20416;-82
2023/03/31 05:18:18;;;;;;;14.32;5.53;;;;;;;;;;5065246;28;20431;-82
2023/03/31 05:20:45;;;;;;;8.87;4.70;;;;;;;;;;5064055;28;20420;-83
2023/03/31 05:23:11;;;;;;;9.95;4.50;;;;;;;;;;5065827;28;20439;-82
2023/03/31 05:25:41;;;;;;;10.82;5.00;;;;;;;;;;5059174;28;20950;-82
2023/03/31 05:28:07;;;;;;;18.55;8.90;;;;;;;;;;5063877;28;20951;-83
2023/03/31 05:30:34;;;;;;;15.10;5.40;;;;;;;;;;5062405;28;20439;-81
2023/03/31 05:33:00;;;;;;;9.70;5.20;;;;;;;;;;5062413;28;20427;-83
2023/03/31 05:35:28;;;;;;;11.43;4.80;;;;;;;;;;5062775;28;20423;-83
2023/03/31 05:37:55;;;;;;;13.45;5.85;;;;;;;;;;5065348;28;20431;-83
2023/03/31 05:40:21;;;;;;;14.55;5.65;;;;;;;;;;5062798;28;20415;-82
2023/03/31 05:42:49;;;;;;;15.52;7.10;;;;;;;;;;5061707;28;20429;-83
2023/03/31 05:45:15;;;;;;;14.38;5.70;;;;;;;;;;5062833;28;20434;-81
2023/03/31 05:47:41;;;;;;;12.90;5.15;;;;;;;;;;5061820;28;20432;-83
2023/03/31 05:50:08;;;;;;;17.23;6.75;;;;;;;;;;5062976;28;20427;-82
2023/03/31 05:52:35;;;;;;;13.38;6.55;;;;;;;;;;5062901;28;20425;-80
2023/03/31 05:55:02;;;;;;;18.25;7.03;;;;;;;;;;5061273;28;20429;-80
2023/03/31 05:57:28;;;;;;;14.60;8.57;;;;;;;;;;5064953;28;20469;-80
2023/03/31 05:59:56;;;;;;;15.27;7.38;;;;;;;;;;5060544;28;20429;-79
2023/03/31 06:02:22;;;;;;;17.40;7.85;;;;;;;;;;5061117;28;20428;-81
2023/03/31 06:04:49;;;;;;;15.85;8.50;;;;;;;;;;5056031;28;20452;-81
2023/03/31 06:07:16;;;;;;;19.60;8.73;;;;;;;;;;5063323;28;21011;-81
2023/03/31 06:09:43;;;;;;;20.60;8.93;;;;;;;;;;5061379;28;20482;-81
2023/03/31 06:12:09;;;;;;;19.07;9.50;;;;;;;;;;5066632;28;20471;-81
2023/03/31 06:14:35;;;;;;;17.65;10.73;;;;;;;;;;5062701;28;20459;-81
2023/03/31 06:17:03;;;;;;;24.13;12.32;;;;;;;;;;5062965;28;20432;-81
2023/03/31 06:19:30;;;;;;;19.67;11.95;;;;;;;;;;5063431;28;20439;-80
2023/03/31 06:21:58;;;;;;;21.42;12.93;;;;;;;;;;5056717;28;20805;-81
2023/03/31 06:24:24;;;;;;;21.45;12.02;;;;;;;;;;5060300;28;20422;-81
2023/03/31 06:26:51;;;;;;;22.00;13.27;;;;;;;;;;5060867;28;20840;-81
2023/03/31 06:29:17;;;;;;;24.83;13.73;;;;;;;;;;5063666;28;20431;-81
2023/03/31 06:31:43;;;;;;;20.65;12.60;;;;;;;;;;5045490;28;20918;-81
2023/03/31 06:34:11;;;;;;;23.20;12.93;;;;;;;;;;5043116;28;20426;-81
2023/03/31 06:36:37;;;;;;;24.58;13.52;;;;;;;;;;5042384;28;21004;-81
2023/03/31 06:39:04;;;;;;;22.92;13.40;;;;;;;;;;5043425;28;20808;-80
2023/03/31 06:41:30;;;;;;;24.67;14.02;;;;;;;;;;5038500;28;20431;-81
2023/03/31 06:43:56;;;;;;;25.42;14.00;;;;;;;;;;5041869;28;20437;-81
2023/03/31 06:46:23;;;;;;;25.15;14.20;;;;;;;;;;5040856;28;20429;-81
2023/03/31 06:48:49;;;;;;;26.80;14.90;;;;;;;;;;5042410;28;20507;-80
2023/03/31 06:51:17;;;;;;;20.60;14.32;;;;;;;;;;5043972;28;20426;-80
2023/03/31 06:53:44;;;;;;;23.85;14.18;;;;;;;;;;5041051;28;20431;-80
2023/03/31 06:56:10;;;;;;;21.58;13.55;;;;;;;;;;5042753;28;20426;-81
2023/03/31 06:58:37;;;;;;;24.67;14.47;;;;;;;;;;5043346;28;20433;-81
2023/03/31 07:01:04;;;;;;;21.38;14.20;;;;;;;;;;5044558;28;20786;-81
2023/03/31 07:03:31;;;;;;;21.03;13.27;;;;;;;;;;5043719;28;20442;-81
2023/03/31 07:05:59;;;;;;;21.20;13.90;;;;;;;;;;5044743;28;20578;-81
2023/03/31 07:08:27;;;;;;;23.38;14.43;;;;;;;;;;5042588;28;20496;-81
2023/03/31 07:10:54;;;;;;;22.55;14.43;;;;;;;;;;5047803;28;20420;-81
2023/03/31 07:13:21;;;;;;;18.40;13.33;;;;;;;;;;5048310;28;20528;-81
2023/03/31 07:15:48;;;;;;;19.65;15.15;;;;;;;;;;5045510;28;20423;-80
2023/03/31 07:18:14;;;;;;;22.88;14.68;;;;;;;;;;5046702;28;20432;-80
2023/03/31 07:20:41;;;;;;;22.13;13.82;;;;;;;;;;5060417;28;20418;-79
2023/03/31 07:23:08;;;;;;;18.13;14.00;;;;;;;;;;5069764;28;20431;-79
2023/03/31 07:25:36;;;;;;;20.67;14.07;;;;;;;;;;5069833;28;20465;-79
2023/03/31 07:28:03;;;;;;;19.33;14.20;;;;;;;;;;5065001;28;20431;-81
2023/03/31 07:30:29;;;;;;;17.40;13.38;;;;;;;;;;5063487;28;20423;-81
2023/03/31 07:32:56;;;;;;;19.70;13.55;;;;;;;;;;5063267;28;20431;-81
2023/03/31 07:35:22;;;;;;;21.75;14.32;;;;;;;;;;5064307;28;20411;-81
2023/03/31 07:37:49;;;;;;;24.35;13.43;;;;;;;;;;5066644;28;20846;-81
2023/03/31 07:40:17;;;;;;;19.05;14.55;;;;;;;;;;5067722;28;20419;-81
2023/03/31 07:42:45;;;;;;;21.98;13.82;;;;;;;;;;5065695;28;20458;-81
2023/03/31 07:45:12;;;;;;;18.83;13.75;;;;;;;;;;5065727;28;21025;-81
2023/03/31 07:47:38;;;;;;;19.73;13.23;;;;;;;;;;5062807;28;20437;-81
2023/03/31 07:50:06;;;;;;;20.13;13.70;;;;;;;;;;5067012;28;20418;-81
2023/03/31 07:52:33;;;;;;;17.60;14.38;;;;;;;;;;5065350;28;20414;-81
2023/03/31 07:54:59;;;;;;;21.55;14.32;;;;;;;;;;5063749;28;20418;-81
2023/03/31 07:57:25;;;;;;;19.03;14.13;;;;;;;;;;5066318;28;20919;-81
2023/03/31 07:59:54;;;;;;;18.25;14.25;;;;;;;;;;5063406;28;20412;-81
2023/03/31 08:02:21;;;;;;;22.67;16.00;;;;;;;;;;5061385;28;20442;-81
2023/03/31 08:04:49;;;;;;;24.83;15.77;;;;;;;;;;5065591;28;20420;-81
2023/03/31 08:07:16;;;;;;;23.90;16.33;;;;;;;;;;5060983;28;20429;-81
2023/03/31 08:09:43;;;;;;;21.35;16.45;;;;;;;;;;5063053;28;20396;-81
2023/03/31 08:12:12;;;;;;;22.48;17.17;;;;;;;;;;5063400;28;20436;-81
2023/03/31 08:14:38;;;;;;;25.10;17.77;;;;;;;;;;5066193;28;20437;-81
2023/03/31 08:17:06;;;;;;;24.07;16.20;;;;;;;;;;5062554;28;20950;-81
2023/03/31 08:19:32;;;;;;;23.60;17.00;;;;;;;;;;5058606;28;20500;-81
2023/03/31 08:21:58;;;;;;;22.27;17.55;;;;;;;;;;5067048;28;20439;-81
2023/03/31 08:24:25;;;;;;;22.15;16.33;;;;;;;;;;5061163;28;20423;-81
2023/03/31 08:26:51;;;;;;;21.15;16.60;;;;;;;;;;5063683;28;20431;-81
2023/03/31 08:29:18;;;;;;;23.08;16.20;;;;;;;;;;5064270;28;20427;-81
2023/03/31 08:31:44;;;;;;;22.13;15.10;;;;;;;;;;5057226;28;20414;-81
2023/03/31 08:34:12;;;;;;;23.83;16.97;;;;;;;;;;5067806;28;20423;-81
2023/03/31 08:36:38;;;;;;;20.27;15.77;;;;;;;;;;5063494;28;20423;-81
2023/03/31 08:39:05;;;;;;;24.83;16.60;;;;;;;;;;5062483;28;20424;-81
2023/03/31 08:41:42;;;;;;;22.90;15.10;;;;;;;;;;5062247;28;20423;-81
2023/03/31 08:44:11;;;;;;;21.80;16.25;;;;;;;;;;5064464;28;20424;-81
2023/03/31 08:46:38;;;;;;;18.38;14.95;;;;;;;;;;5065892;28;20872;-81
2023/03/31 08:49:06;;;;;;;17.20;11.98;;;;;;;;;;5066437;28;20425;-81
2023/03/31 08:51:36;;;;;;;22.15;13.88;;;;;;;;;;5062803;28;20795;-81
2023/03/31 08:54:03;;;;;;;23.25;14.00;;;;;;;;;;5065622;28;20427;-81
2023/03/31 08:56:31;;;;;;;22.42;14.75;;;;;;;;;;5060817;28;20423;-81
2023/03/31 08:59:01;;;;;;;18.67;13.50;;;;;;;;;;5064832;28;20455;-81
2023/03/31 09:01:32;;;;;;;20.45;13.68;;;;;;;;;;5063088;28;20424;-81
2023/03/31 09:04:07;;;;;;;21.25;13.80;;;;;;;;;;5066289;28;20430;-81
2023/03/31 09:06:37;;;;;;;18.50;13.13;;;;;;;;;;5063777;28;20440;-80
2023/03/31 09:09:07;;;;;;;20.63;12.85;;;;;;;;;;5064115;28;20428;-81
2023/03/31 09:11:35;;;;;;;19.70;12.85;;;;;;;;;;5064783;28;20919;-81
2023/03/31 09:14:07;;;;;;;18.50;12.83;;;;;;;;;;5062736;28;20425;-81
2023/03/31 09:16:36;;;;;;;17.27;13.05;;;;;;;;;;5060418;28;20436;-82
2023/03/31 09:19:02;;;;;;;18.08;12.55;;;;;;;;;;5061997;28;20417;-81
2023/03/31 09:21:32;;;;;;;22.10;14.30;;;;;;;;;;5065630;28;20435;-81
2023/03/31 09:24:03;;;;;;;17.85;12.10;;;;;;;;;;5067923;28;20437;-81
2023/03/31 09:26:33;;;;;;;15.60;11.70;;;;;;;;;;5065766;28;20427;-81
2023/03/31 09:29:00;;;;;;;17.17;11.75;;;;;;;;;;5064474;28;20431;-81
2023/03/31 09:31:27;;;;;;;15.67;10.17;;;;;;;;;;5062904;28;20426;-80
2023/03/31 09:33:57;;;;;;;15.43;12.07;;;;;;;;;;5063057;28;20435;-81
2023/03/31 09:36:24;;;;;;;14.47;10.13;;;;;;;;;;5060937;28;20431;-80
2023/03/31 09:38:51;;;;;;;17.58;10.70;;;;;;;;;;5063912;28;20426;-81
2023/03/31 09:41:20;;;;;;;14.68;10.07;;;;;;;;;;5062552;28;20431;-81
2023/03/31 09:43:48;;;;;;;15.73;9.70;;;;;;;;;;5067696;28;20415;-81
2023/03/31 09:46:19;;;;;;;17.67;9.68;;;;;;;;;;5061458;28;20432;-81
2023/03/31 09:48:51;;;;;;;10.35;8.60;;;;;;;;;;5060157;28;20429;-81
2023/03/31 09:51:20;;;;;;;12.88;7.97;;;;;;;;;;5061804;28;20429;-81
2023/03/31 09:53:48;;;;;;;11.80;7.20;;;;;;;;;;5061027;28;20429;-81
2023/03/31 09:56:31;;;;;;;11.43;6.30;;;;;;;;;;5060257;28;20420;-81
2023/03/31 09:59:01;;;;;;;9.88;6.38;;;;;;;;;;5064465;28;21609;-80
2023/03/31 10:01:28;;;;;;;12.60;6.50;;;;;;;;;;5062428;28;20481;-80
2023/03/31 10:03:55;;;;;;;11.32;6.35;;;;;;;;;;5065898;28;20506;-80
2023/03/31 10:06:22;;;;;;;13.75;7.78;;;;;;;;;;5061867;28;20435;-81
2023/03/31 10:08:50;;;;;;;12.40;7.10;;;;;;;;;;5061736;28;20941;-80
2023/03/31 10:11:17;;;;;;;12.38;8.90;;;;;;;;;;5061844;28;20925;-80
2023/03/31 10:13:46;;;;;;;10.93;7.72;;;;;;;;;;5060750;28;20425;-80
2023/03/31 10:16:22;;;;;;;11.63;8.23;;;;;;;;;;5061142;28;20429;-80
2023/03/31 10:18:48;;;;;;;14.23;8.80;;;;;;;;;;5064874;28;20506;-80
2023/03/31 10:21:23;;;;;;;18.17;11.60;;;;;;;;;;5062479;28;20957;-81
2023/03/31 10:23:50;;;;;;;15.98;9.27;;;;;;;;;;5061615;28;20435;-81
2023/03/31 10:26:17;;;;;;;15.23;10.07;;;;;;;;;;5064002;28;20431;-81
2023/03/31 10:28:44;;;;;;;16.33;9.68;;;;;;;;;;5061485;28;20429;-80
2023/03/31 10:31:11;;;;;;;16.75;9.48;;;;;;;;;;5063391;28;20427;-80
2023/03/31 10:33:42;;;;;;;13.68;9.30;;;;;;;;;;5065808;28;20438;-80
2023/03/31 10:36:22;;;;;;;15.23;9.27;;;;;;;;;;5067868;28;20825;-80
2023/03/31 10:38:49;;;;;;;17.65;9.73;;;;;;;;;;5063829;28;20982;-81
2023/03/31 10:41:18;;;;;;;15.77;9.77;;;;;;;;;;5062222;28;20949;-79
2023/03/31 10:43:48;;;;;;;14.00;9.45;;;;;;;;;;5068512;28;20417;-79
2023/03/31 10:46:14;;;;;;;21.67;10.23;;;;;;;;;;5064531;28;20425;-81
2023/03/31 10:48:43;;;;;;;18.45;8.70;;;;;;;;;;5064892;28;20433;-81
2023/03/31 10:51:11;;;;;;;12.07;9.00;;;;;;;;;;5071820;28;20459;-79
2023/03/31 10:53:42;;;;;;;12.73;8.40;;;;;;;;;;5065812;28;20419;-80
2023/03/31 10:56:27;;;;;;;13.82;8.20;;;;;;;;;;5065032;28;20433;-81
2023/03/31 10:58:59;;;;;;;13.52;7.72;;;;;;;;;;5055385;28;20432;-81
2023/03/31 11:01:31;;;;;;;11.13;7.93;;;;;;;;;;5068031;28;20454;-81
2023/03/31 11:04:08;;;;;;;14.70;8.60;;;;;;;;;;5066542;28;20435;-80
2023/03/31 11:06:42;;;;;;;11.30;7.85;;;;;;;;;;5069738;28;20427;-80
2023/03/31 11:09:15;;;;;;;12.43;8.18;;;;;;;;;;5064835;28;20429;-78
2023/03/31 11:11:53;;;;;;;11.77;8.10;;;;;;;;;;5065419;28;20437;-81
2023/03/31 11:14:23;;;;;;;13.73;8.35;;;;;;;;;;5068609;28;20421;-81
2023/03/31 11:16:52;;;;;;;10.97;8.23;;;;;;;;;;5063063;28;20444;-80
2023/03/31 11:19:27;;;;;;;12.20;8.30;;;;;;;;;;5063613;28;20435;-79
2023/03/31 11:21:58;;;;;;;11.55;7.75;;;;;;;;;;5067973;28;20784;-79
2023/03/31 11:24:33;;;;;;;16.20;9.30;;;;;;;;;;5063546;28;20438;-79
2023/03/31 11:27:05;;;;;;;11.38;8.00;;;;;;;;;;5064781;28;20466;-78
2023/03/31 11:29:35;;;;;;;16.73;8.80;;;;;;;;;;5063370;28;20429;-79
2023/03/31 11:32:11;;;;;;;13.38;8.10;;;;;;;;;;5064749;28;20433;-79
2023/03/31 11:34:54;;;;;;;10.98;8.00;;;;;;;;;;5064265;28;20431;-79
2023/03/31 11:37:30;;;;;;;10.73;7.80;;;;;;;;;;5064247;28;20941;-79
2023/03/31 11:40:06;;;;;;;11.18;7.90;;;;;;;;;;5064192;28;20515;-78
2023/03/31 11:42:35;;;;;;;10.38;6.82;;;;;;;;;;5061360;28;20431;-78
2023/03/31 11:45:04;;;;;;;10.57;6.10;;;;;;;;;;5059077;28;20429;-78
2023/03/31 11:47:33;;;;;;;7.80;6.82;;;;;;;;;;5063146;28;20431;-79
2023/03/31 11:50:03;;;;;;;10.00;7.03;;;;;;;;;;5064561;28;20418;-78
2023/03/31 11:52:31;;;;;;;6.80;6.13;;;;;;;;;;5066072;28;20427;-80
2023/03/31 11:54:59;;;;;;;6.20;5.60;;;;;;;;;;5066285;28;20411;-80
2023/03/31 11:57:29;;;;;;;6.47;5.88;;;;;;;;;;5064478;28;20458;-80
2023/03/31 11:59:57;;;;;;;6.25;5.00;;;;;;;;;;5065430;28;20476;-80
2023/03/31 12:02:27;;;;;;;8.20;5.80;;;;;;;;;;5061744;28;20440;-80
2023/03/31 12:04:55;;;;;;;7.47;5.43;;;;;;;;;;5064897;28;20430;-78
2023/03/31 12:07:28;;;;;;;7.32;5.70;;;;;;;;;;5062880;28;20494;-79
2023/03/31 12:10:02;;;;;;;8.47;5.90;;;;;;;;;;5062651;28;20526;-79
2023/03/31 12:12:29;;;;;;;7.78;5.80;;;;;;;;;;5070045;28;20431;-79
2023/03/31 12:15:01;;;;;;;6.50;5.10;;;;;;;;;;5066815;28;20496;-79
2023/03/31 12:17:28;;;;;;;5.50;5.00;;;;;;;;;;5059027;28;20424;-81
2023/03/31 12:19:55;;;;;;;5.35;4.82;;;;;;;;;;5062845;28;20404;-80
2023/03/31 12:22:25;;;;;;;5.60;4.60;;;;;;;;;;5063260;28;20806;-80
2023/03/31 12:24:52;;;;;;;6.00;4.60;;;;;;;;;;5062755;28;20494;-81
2023/03/31 12:27:21;;;;;;;6.88;4.90;;;;;;;;;;5062137;28;20463;-80
2023/03/31 12:29:50;;;;;;;5.20;4.43;;;;;;;;;;5066301;28;20420;-81
2023/03/31 12:32:18;;;;;;;4.90;4.40;;;;;;;;;;5061146;28;20433;-80
2023/03/31 12:34:48;;;;;;;5.25;4.85;;;;;;;;;;5062340;28;20928;-78
2023/03/31 12:37:32;;;;;;;7.05;5.30;;;;;;;;;;5061495;28;20798;-80
2023/03/31 12:40:04;;;;;;;6.38;4.80;;;;;;;;;;5063496;28;20407;-79
2023/03/31 12:42:37;;;;;;;5.95;4.72;;;;;;;;;;5065278;28;20832;-78
2023/03/31 12:45:10;;;;;;;6.38;4.60;;;;;;;;;;5064530;28;20418;-78
2023/03/31 12:47:44;;;;;;;7.20;5.00;;;;;;;;;;5063089;28;20455;-78
2023/03/31 12:50:23;;;;;;;5.25;4.40;;;;;;;;;;5059612;28;20436;-79
2023/03/31 12:52:55;;;;;;;5.50;5.00;;;;;;;;;;5067514;28;20948;-80
2023/03/31 12:55:37;;;;;;;5.25;4.85;;;;;;;;;;5060703;28;20451;-80
2023/03/31 12:58:32;;;;;;;8.02;5.00;;;;;;;;;;5064685;28;20432;-80
2023/03/31 13:01:03;;;;;;;7.15;5.53;;;;;;;;;;5016805;28;20937;-81
2023/03/31 13:03:36;;;;;;;11.25;7.40;;;;;;;;;;5063003;28;20434;-81
2023/03/31 13:06:03;;;;;;;14.02;8.32;;;;;;;;;;5062276;28;20425;-80
2023/03/31 13:08:48;;;;;;;7.75;5.60;;;;;;;;;;5062228;28;20432;-80
2023/03/31 13:11:16;;;;;;;10.77;6.38;;;;;;;;;;5059328;28;20429;-81
2023/03/31 13:13:45;;;;;;;7.90;5.72;;;;;;;;;;5065679;28;20434;-80
2023/03/31 13:16:19;;;;;;;6.85;5.35;;;;;;;;;;5064810;28;20434;-80
2023/03/31 13:18:50;;;;;;;6.85;4.70;;;;;;;;;;5062558;28;20478;-80
2023/03/31 13:21:16;;;;;;;6.50;5.00;;;;;;;;;;5063478;28;20429;-80
2023/03/31 13:23:45;;;;;;;7.22;5.40;;;;;;;;;;5059450;28;20768;-80
2023/03/31 13:26:26;;;;;;;7.45;5.80;;;;;;;;;;5064670;28;20417;-80
2023/03/31 13:29:08;;;;;;;6.87;5.70;;;;;;;;;;5060060;28;20916;-80
2023/03/31 13:31:49;;;;;;;7.72;5.57;;;;;;;;;;5062004;28;20513;-80
2023/03/31 13:34:17;;;;;;;6.57;4.18;;;;;;;;;;5057644;28;20431;-80
2023/03/31 13:36:49;;;;;;;6.25;3.95;;;;;;;;;;5059521;28;20421;-80
2023/03/31 13:39:29;;;;;;;6.32;3.88;;;;;;;;;;5063187;28;20518;-80
2023/03/31 13:42:02;;;;;;;3.60;2.87;;;;;;;;;;5060671;28;20494;-80
2023/03/31 13:44:36;;;;;;;5.00;3.08;;;;;;;;;;5044665;28;20970;-80
2023/03/31 13:47:10;;;;;;;4.82;2.63;;;;;;;;;;5063451;28;20556;-80
2023/03/31 13:49:48;;;;;;;4.57;3.03;;;;;;;;;;5061505;28;20432;-80
2023/03/31 13:52:20;;;;;;;4.30;2.78;;;;;;;;;;5063111;28;20428;-80
2023/03/31 13:55:09;;;;;;;3.58;3.20;;;;;;;;;;5065841;28;20413;-80
2023/03/31 13:57:54;;;;;;;6.00;3.40;;;;;;;;;;5063621;28;20427;-80
2023/03/31 14:00:32;;;;;;;4.20;3.30;;;;;;;;;;5063274;28;20416;-80
2023/03/31 14:03:18;;;;;;;4.30;3.10;;;;;;;;;;5063211;28;20450;-80
2023/03/31 14:05:50;;;;;;;4.85;3.10;;;;;;;;;;5066044;28;20793;-80
2023/03/31 14:08:20;;;;;;;5.20;3.65;;;;;;;;;;5068273;28;20429;-80
2023/03/31 14:10:49;;;;;;;5.65;3.00;;;;;;;;;;5068700;28;20423;-80
2023/03/31 14:13:17;;;;;;;3.88;2.95;;;;;;;;;;5066377;28;20435;-80
2023/03/31 14:15:45;;;;;;;4.35;3.20;;;;;;;;;;5065590;28;20423;-80
2023/03/31 14:18:14;;;;;;;4.80;3.03;;;;;;;;;;5067567;28;20942;-80
2023/03/31 14:20:49;;;;;;;4.97;3.97;;;;;;;;;;5069384;28;20432;-80
2023/03/31 14:23:25;;;;;;;4.90;3.50;;;;;;;;;;5067290;28;20433;-80
2023/03/31 14:25:56;;;;;;;4.47;3.20;;;;;;;;;;5070104;28;20421;-80
2023/03/31 14:28:45;;;;;;;4.18;3.42;;;;;;;;;;5068710;28;20433;-80
2023/03/31 14:31:19;;;;;;;7.25;3.63;;;;;;;;;;5069140;28;20924;-80
2023/03/31 14:33:47;;;;;;;4.00;3.13;;;;;;;;;;5072152;28;20432;-80
2023/03/31 14:36:20;;;;;;;3.10;2.80;;;;;;;;;;5068371;28;20805;-80
2023/03/31 14:38:47;;;;;;;5.80;3.20;;;;;;;;;;5071053;28;20416;-80
2023/03/31 14:41:18;;;;;;;5.80;3.30;;;;;;;;;;5072159;28;20437;-80
2023/03/31 14:43:47;;;;;;;5.50;2.97;;;;;;;;;;5069476;28;20937;-80